Time;durP1;ratioP1;P1;durP2;ratioP2;P2;SDS_P1;SDS_P2;PMS_P1;PMS_P2;Temp;Humidity;BMP_temperature;BMP_pressure;BME280_temperature;BME280_humidity;BME280_pressure;Samples;Min_cycle;Max_cycle;Signal;HPM_P1;HPM_P2
2021/12/07 00:01:36;;;;;;;6.73;2.00;;;4.40;99.90;;;;;;4953606;28;20694;-74
2021/12/07 00:04:03;;;;;;;4.93;1.87;;;4.50;99.90;;;;;;4954526;28;20301;-77
2021/12/07 00:06:30;;;;;;;9.43;2.17;;;4.50;99.90;;;;;;4954132;28;20208;-77
2021/12/07 00:08:57;;;;;;;6.60;1.93;;;4.50;99.90;;;;;;4954899;28;20407;-75
2021/12/07 00:11:28;;;;;;;3.57;1.70;;;4.60;99.90;;;;;;4954618;28;20231;-77
2021/12/07 00:13:58;;;;;;;3.60;1.73;;;4.50;99.90;;;;;;4954970;28;20216;-72
2021/12/07 00:16:27;;;;;;;5.80;1.90;;;4.60;99.90;;;;;;4954114;28;20215;-76
2021/12/07 00:18:55;;;;;;;4.30;1.60;;;4.60;99.90;;;;;;4954499;28;20235;-77
2021/12/07 00:21:22;;;;;;;2.70;1.50;;;4.60;99.90;;;;;;4954608;29;20228;-77
2021/12/07 00:23:50;;;;;;;9.97;1.70;;;4.60;99.90;;;;;;4954814;29;20212;-72
2021/12/07 00:26:17;;;;;;;3.93;1.80;;;4.60;99.90;;;;;;4954992;29;20211;-76
2021/12/07 00:28:47;;;;;;;9.20;1.67;;;4.60;99.90;;;;;;4954463;29;20212;-76
2021/12/07 00:31:22;;;;;;;6.67;1.83;;;4.60;99.90;;;;;;4954702;29;20228;-75
2021/12/07 00:33:54;;;;;;;7.10;1.70;;;4.60;99.90;;;;;;4954363;28;20207;-76
2021/12/07 00:36:21;;;;;;;7.63;1.47;;;4.60;99.90;;;;;;4954285;28;20215;-76
2021/12/07 00:38:48;;;;;;;5.87;1.50;;;4.60;99.90;;;;;;4954412;28;20457;-72
2021/12/07 00:41:14;;;;;;;5.93;1.60;;;4.60;99.90;;;;;;4954841;28;20238;-76
2021/12/07 00:43:41;;;;;;;9.23;1.67;;;4.60;99.90;;;;;;4954448;28;20204;-77
2021/12/07 00:46:11;;;;;;;8.93;1.50;;;4.60;99.90;;;;;;4954088;28;20216;-76
2021/12/07 00:48:38;;;;;;;4.43;1.60;;;4.70;99.90;;;;;;4953806;28;20216;-72
2021/12/07 00:51:05;;;;;;;6.00;1.70;;;4.80;99.90;;;;;;4954215;28;20591;-73
2021/12/07 00:53:32;;;;;;;12.03;1.60;;;4.90;99.90;;;;;;4954699;28;20208;-76
2021/12/07 00:56:02;;;;;;;8.83;1.47;;;4.90;99.90;;;;;;4954801;28;20215;-76
2021/12/07 00:58:30;;;;;;;3.67;1.77;;;4.80;99.90;;;;;;4953947;28;20295;-73
2021/12/07 01:00:59;;;;;;;4.00;1.90;;;4.80;99.90;;;;;;4953456;28;20224;-74
2021/12/07 01:03:28;;;;;;;7.77;2.13;;;4.60;99.90;;;;;;4953908;28;20241;-75
2021/12/07 01:06:06;;;;;;;3.13;1.40;;;4.70;99.90;;;;;;4954288;28;20204;-75
2021/12/07 01:25:09;;;;;;;5.57;1.40;;;4.90;99.90;;;;;;4957718;29;20247;-72
2021/12/07 01:27:36;;;;;;;5.83;1.70;;;4.90;99.90;;;;;;4957593;28;20259;-74
2021/12/07 01:30:11;;;;;;;8.30;1.73;;;4.80;99.90;;;;;;4976077;28;20218;-73
2021/12/07 01:32:54;;;;;;;5.53;1.43;;;4.70;99.90;;;;;;4976999;28;20279;-73
2021/12/07 01:38:29;;;;;;;4.77;1.80;;;4.80;99.90;;;;;;4976594;28;20274;-76
2021/12/07 01:41:09;;;;;;;11.47;1.60;;;4.80;99.90;;;;;;4976046;28;20326;-76
2021/12/07 01:52:30;;;;;;;7.37;1.20;;;4.60;99.90;;;;;;4956097;28;20689;-75
2021/12/07 01:58:05;;;;;;;6.37;1.50;;;4.60;99.90;;;;;;4976458;28;20225;-74
2021/12/07 02:00:36;;;;;;;6.57;1.50;;;4.60;99.90;;;;;;4975910;28;20705;-76
2021/12/07 02:03:03;;;;;;;3.70;1.50;;;4.60;99.90;;;;;;4975007;28;20211;-76
2021/12/07 02:05:30;;;;;;;4.07;1.70;;;4.60;99.90;;;;;;4974793;28;20210;-75
2021/12/07 02:07:58;;;;;;;8.20;1.70;;;4.60;99.90;;;;;;4975208;28;20218;-77
2021/12/07 02:10:28;;;;;;;2.83;1.50;;;4.50;99.90;;;;;;4976148;28;20709;-76
2021/12/07 02:13:02;;;;;;;5.63;1.33;;;4.60;99.90;;;;;;4975968;28;20207;-74
2021/12/07 02:15:29;;;;;;;2.50;1.00;;;4.60;99.90;;;;;;4975490;28;20308;-76
2021/12/07 02:17:56;;;;;;;3.77;1.63;;;4.60;99.90;;;;;;4975697;28;20237;-76
2021/12/07 02:20:26;;;;;;;6.67;1.40;;;4.60;99.90;;;;;;4975522;28;20227;-76
2021/12/07 02:22:54;;;;;;;7.97;1.57;;;4.50;99.90;;;;;;4975924;28;20207;-73
2021/12/07 02:25:21;;;;;;;5.43;1.77;;;4.50;99.90;;;;;;4975959;28;20214;-72
2021/12/07 02:27:49;;;;;;;7.73;1.50;;;4.40;99.90;;;;;;4975807;28;20777;-75
2021/12/07 02:30:19;;;;;;;4.83;1.40;;;4.50;99.90;;;;;;4975947;28;20223;-76
2021/12/07 02:32:50;;;;;;;12.53;1.77;;;4.60;99.90;;;;;;4975588;28;20203;-76
2021/12/07 02:35:23;;;;;;;5.20;1.20;;;4.50;99.90;;;;;;4976099;28;20207;-76
2021/12/07 02:37:50;;;;;;;2.73;0.90;;;4.50;99.90;;;;;;4976099;28;20697;-71
2021/12/07 02:40:18;;;;;;;7.43;1.50;;;4.40;99.90;;;;;;4975433;28;20223;-73
2021/12/07 02:42:45;;;;;;;5.50;1.30;;;4.50;99.90;;;;;;4975686;28;20291;-77
2021/12/07 02:45:13;;;;;;;3.37;0.97;;;4.40;99.90;;;;;;4975947;28;20217;-77
2021/12/07 02:47:41;;;;;;;8.30;1.50;;;4.40;99.90;;;;;;4975354;28;20211;-75
2021/12/07 02:50:09;;;;;;;2.33;1.77;;;4.40;99.90;;;;;;4975495;28;20223;-76
2021/12/07 02:52:36;;;;;;;2.93;1.17;;;4.50;99.90;;;;;;4975825;28;20218;-76
2021/12/07 02:55:04;;;;;;;6.33;1.03;;;4.40;99.90;;;;;;4975319;28;20681;-77
2021/12/07 02:57:33;;;;;;;4.23;0.90;;;4.30;99.90;;;;;;4975437;28;20207;-76
2021/12/07 03:00:06;;;;;;;5.77;1.20;;;4.30;99.90;;;;;;4975040;28;20282;-76
2021/12/07 03:02:39;;;;;;;2.40;0.80;;;4.30;99.90;;;;;;4975377;28;20203;-77
2021/12/07 03:05:16;;;;;;;4.03;0.93;;;4.10;99.90;;;;;;4975218;28;20695;-74
2021/12/07 03:07:53;;;;;;;7.07;1.07;;;4.20;99.90;;;;;;4975341;28;20254;-77
2021/12/07 03:26:45;;;;;;;8.17;1.20;;;3.80;99.90;;;;;;4975111;28;20286;-76
2021/12/07 03:29:13;;;;;;;3.73;0.93;;;3.80;99.90;;;;;;4974954;28;20211;-71
2021/12/07 03:31:40;;;;;;;5.13;0.87;;;3.80;99.90;;;;;;4974343;28;20223;-73
2021/12/07 03:34:06;;;;;;;3.50;0.80;;;3.80;99.90;;;;;;4974694;28;20234;-74
2021/12/07 03:36:33;;;;;;;13.97;1.10;;;3.70;99.90;;;;;;4974542;28;20215;-72
2021/12/07 03:39:01;;;;;;;2.73;1.00;;;3.70;99.90;;;;;;4974598;28;20622;-74
2021/12/07 03:41:28;;;;;;;1.10;0.60;;;3.70;99.90;;;;;;4973561;28;20234;-74
2021/12/07 03:43:55;;;;;;;1.80;0.80;;;3.70;99.90;;;;;;4974335;28;20213;-72
2021/12/07 03:46:23;;;;;;;5.53;1.30;;;3.70;99.90;;;;;;4974590;28;20283;-76
2021/12/07 03:48:51;;;;;;;2.27;0.67;;;3.70;99.90;;;;;;4974630;28;20210;-76
2021/12/07 03:51:19;;;;;;;6.67;1.20;;;3.70;99.90;;;;;;4974270;28;20314;-75
2021/12/07 03:53:46;;;;;;;2.60;0.60;;;3.70;99.90;;;;;;4974616;28;20211;-77
2021/12/07 03:56:13;;;;;;;4.40;0.70;;;3.60;99.90;;;;;;4974246;28;20203;-76
2021/12/07 03:58:41;;;;;;;6.87;0.90;;;3.60;99.90;;;;;;4974456;28;20258;-76
2021/12/07 04:01:11;;;;;;;6.73;0.67;;;3.50;99.90;;;;;;4973655;28;20227;-76
2021/12/07 04:03:41;;;;;;;5.50;0.93;;;3.50;99.90;;;;;;4974099;28;20282;-75
2021/12/07 04:06:07;;;;;;;2.33;0.80;;;3.50;99.90;;;;;;4973948;28;20203;-72
2021/12/07 04:08:37;;;;;;;4.93;1.10;;;3.50;99.90;;;;;;4974701;28;20215;-72
2021/12/07 04:11:04;;;;;;;6.63;1.40;;;3.50;99.90;;;;;;4974524;28;20223;-75
2021/12/07 04:13:31;;;;;;;3.33;0.83;;;3.40;99.90;;;;;;4974741;28;20234;-75
2021/12/07 04:15:58;;;;;;;4.63;0.90;;;3.40;99.90;;;;;;4974051;28;20211;-76
2021/12/07 04:18:27;;;;;;;1.63;0.63;;;3.40;99.90;;;;;;4974177;28;20233;-75
2021/12/07 04:20:56;;;;;;;5.83;0.63;;;3.30;99.90;;;;;;4973672;28;20669;-76
2021/12/07 04:23:22;;;;;;;4.87;0.50;;;3.40;99.90;;;;;;4973754;28;20207;-72
2021/12/07 04:25:50;;;;;;;7.40;0.90;;;3.40;99.90;;;;;;4974282;28;20705;-76
2021/12/07 04:28:16;;;;;;;2.33;0.73;;;3.40;99.90;;;;;;4973916;28;20207;-76
2021/12/07 04:30:44;;;;;;;3.40;0.80;;;3.30;99.90;;;;;;4973808;28;20227;-76
2021/12/07 04:33:12;;;;;;;3.90;0.87;;;3.30;99.90;;;;;;4974413;28;20211;-76
2021/12/07 04:35:41;;;;;;;7.30;1.07;;;3.30;99.90;;;;;;4973908;28;20207;-76
2021/12/07 04:38:10;;;;;;;3.53;0.80;;;3.30;99.90;;;;;;4974209;28;20215;-76
2021/12/07 04:40:37;;;;;;;1.13;0.50;;;3.30;99.90;;;;;;4973817;28;20231;-75
2021/12/07 04:43:05;;;;;;;5.63;0.87;;;3.40;99.90;;;;;;4973661;28;20203;-73
2021/12/07 04:45:39;;;;;;;3.47;0.80;;;3.30;99.90;;;;;;4973664;28;20302;-75
2021/12/07 04:48:34;;;;;;;6.80;1.13;;;3.40;99.90;;;;;;4977662;28;20203;-73
2021/12/07 04:59:17;;;;;;;5.37;1.10;;;3.30;99.90;;;;;;4977585;28;20612;-73
2021/12/07 05:01:45;;;;;;;1.47;0.60;;;3.30;99.90;;;;;;4977343;28;20594;-76
2021/12/07 05:04:15;;;;;;;5.30;0.80;;;3.30;99.90;;;;;;4977482;28;20207;-76
2021/12/07 05:06:48;;;;;;;1.00;0.50;;;3.30;99.90;;;;;;4977582;28;20275;-75
2021/12/07 05:09:33;;;;;;;5.00;1.10;;;3.20;99.90;;;;;;4976878;28;20233;-77
2021/12/07 05:12:23;;;;;;;4.17;0.70;;;3.20;99.90;;;;;;4977016;28;20227;-76
2021/12/07 05:14:59;;;;;;;4.83;1.10;;;3.20;99.90;;;;;;4976772;28;20227;-76
2021/12/07 05:17:42;;;;;;;3.27;0.70;;;3.20;99.90;;;;;;4976892;28;20242;-77
2021/12/07 05:26:09;;;;;;;6.97;1.27;;;3.20;99.90;;;;;;4977120;28;20777;-77
2021/12/07 05:39:29;;;;;;;5.33;0.70;;;3.10;99.90;;;;;;4977033;28;20273;-75
2021/12/07 05:41:58;;;;;;;9.40;0.90;;;3.20;99.90;;;;;;4977126;28;20279;-75
2021/12/07 05:44:25;;;;;;;1.37;0.67;;;3.00;99.90;;;;;;4976783;28;20211;-76
2021/12/07 05:46:52;;;;;;;10.20;1.57;;;3.10;99.90;;;;;;4976546;28;20569;-77
2021/12/07 05:49:19;;;;;;;7.47;1.43;;;3.00;99.90;;;;;;4976514;28;20213;-75
2021/12/07 05:51:46;;;;;;;2.23;0.80;;;3.00;99.90;;;;;;4976380;28;20234;-76
2021/12/07 05:54:13;;;;;;;3.83;0.73;;;3.00;99.90;;;;;;4976361;28;20203;-76
2021/12/07 05:56:40;;;;;;;5.40;0.87;;;3.00;99.90;;;;;;4975327;28;20211;-76
2021/12/07 05:59:08;;;;;;;5.40;1.07;;;3.10;99.90;;;;;;4975044;28;20227;-74
2021/12/07 06:01:35;;;;;;;6.47;0.70;;;3.00;99.90;;;;;;4976219;28;20246;-75
2021/12/07 06:04:02;;;;;;;9.07;1.30;;;2.90;99.90;;;;;;4976220;28;20211;-72
2021/12/07 06:06:29;;;;;;;3.97;0.80;;;2.90;99.90;;;;;;4975812;28;20233;-76
2021/12/07 06:08:56;;;;;;;5.43;0.90;;;2.90;99.90;;;;;;4975873;28;20211;-76
2021/12/07 06:11:24;;;;;;;3.60;1.00;;;2.90;99.90;;;;;;4975539;28;20697;-76
2021/12/07 06:13:51;;;;;;;4.30;0.60;;;2.90;99.90;;;;;;4975638;28;20687;-75
2021/12/07 06:16:19;;;;;;;10.70;0.93;;;2.80;99.90;;;;;;4975727;28;20211;-75
2021/12/07 06:18:46;;;;;;;5.77;1.10;;;2.80;99.90;;;;;;4975913;28;20214;-77
2021/12/07 06:21:14;;;;;;;2.83;1.27;;;2.80;99.90;;;;;;4975455;28;20223;-77
2021/12/07 06:23:41;;;;;;;4.93;0.90;;;2.90;99.90;;;;;;4975541;28;20219;-75
2021/12/07 06:26:08;;;;;;;4.60;1.10;;;2.80;99.90;;;;;;4976038;28;20611;-76
2021/12/07 06:28:35;;;;;;;3.37;0.87;;;2.80;99.90;;;;;;4976165;28;20207;-73
2021/12/07 06:31:02;;;;;;;4.97;1.30;;;2.80;99.90;;;;;;4975571;28;20231;-74
2021/12/07 06:33:30;;;;;;;8.30;1.07;;;2.70;99.90;;;;;;4966786;28;20195;-76
2021/12/07 06:35:59;;;;;;;13.97;2.27;;;2.70;99.90;;;;;;4965651;28;20230;-77
2021/12/07 06:38:27;;;;;;;10.03;1.43;;;2.80;99.90;;;;;;4963966;28;20219;-75
2021/12/07 06:40:55;;;;;;;2.90;1.10;;;2.80;99.90;;;;;;4963290;28;20266;-71
2021/12/07 06:43:22;;;;;;;9.00;0.87;;;2.70;99.90;;;;;;4958551;28;20204;-76
2021/12/07 06:45:49;;;;;;;4.53;0.80;;;2.70;99.90;;;;;;4955906;28;20208;-76
2021/12/07 06:48:16;;;;;;;2.63;1.03;;;2.60;99.90;;;;;;4956652;28;20214;-76
2021/12/07 06:50:44;;;;;;;3.40;1.50;;;2.60;99.90;;;;;;4955923;28;20231;-77
2021/12/07 06:53:11;;;;;;;1.30;0.90;;;2.80;99.90;;;;;;4955754;28;20215;-77
2021/12/07 06:55:38;;;;;;;2.07;1.17;;;2.80;99.90;;;;;;4956279;29;20299;-76
2021/12/07 06:58:05;;;;;;;4.10;1.20;;;2.80;99.90;;;;;;4955712;28;20868;-76
2021/12/07 07:00:33;;;;;;;5.70;1.33;;;2.80;99.90;;;;;;4955985;29;20676;-76
2021/12/07 07:03:00;;;;;;;5.57;1.57;;;2.70;99.90;;;;;;4956138;29;20355;-74
2021/12/07 07:05:27;;;;;;;2.77;0.67;;;2.60;99.90;;;;;;4955978;29;20208;-76
2021/12/07 07:07:55;;;;;;;8.97;1.60;;;2.60;99.90;;;;;;4955995;29;20573;-76
2021/12/07 07:10:22;;;;;;;5.13;1.47;;;2.60;99.90;;;;;;4955405;28;20239;-77
2021/12/07 07:12:49;;;;;;;2.00;0.93;;;2.60;99.90;;;;;;4956130;29;20230;-76
2021/12/07 07:15:17;;;;;;;5.30;1.07;;;2.60;99.90;;;;;;4956059;29;20215;-77
2021/12/07 07:17:44;;;;;;;8.40;1.40;;;2.70;99.90;;;;;;4956154;29;20210;-77
2021/12/07 07:20:15;;;;;;;8.27;1.30;;;2.60;99.90;;;;;;4955951;29;20722;-76
2021/12/07 07:22:43;;;;;;;3.40;2.00;;;2.60;99.90;;;;;;4956251;29;20231;-76
2021/12/07 07:25:11;;;;;;;5.57;1.13;;;2.60;99.90;;;;;;4956026;29;20208;-75
2021/12/07 07:27:39;;;;;;;7.40;0.97;;;2.60;99.90;;;;;;4955938;29;20215;-74
2021/12/07 07:30:08;;;;;;;10.17;1.57;;;2.60;99.90;;;;;;4955505;29;20212;-76
2021/12/07 07:32:36;;;;;;;3.60;1.37;;;2.60;99.90;;;;;;4955736;29;20216;-76
2021/12/07 07:35:03;;;;;;;6.43;1.10;;;2.60;99.90;;;;;;4955267;28;20208;-71
2021/12/07 07:37:30;;;;;;;6.07;1.17;;;2.60;99.90;;;;;;4967604;28;20200;-73
2021/12/07 07:39:57;;;;;;;17.23;1.37;;;2.60;99.90;;;;;;4974101;28;20231;-76
2021/12/07 07:42:25;;;;;;;5.17;1.40;;;2.60;99.90;;;;;;4974413;28;20203;-74
2021/12/07 07:44:52;;;;;;;9.57;1.50;;;2.60;99.90;;;;;;4974200;28;20726;-74
2021/12/07 07:47:19;;;;;;;8.03;1.17;;;2.60;99.90;;;;;;4974281;28;20199;-71
2021/12/07 07:49:46;;;;;;;6.23;1.47;;;2.70;99.90;;;;;;4969393;28;20202;-76
2021/12/07 07:52:12;;;;;;;3.97;1.00;;;2.70;99.90;;;;;;4966842;28;20684;-75
2021/12/07 07:54:39;;;;;;;4.47;1.03;;;2.70;99.90;;;;;;4960954;28;20200;-76
2021/12/07 07:57:06;;;;;;;8.27;1.40;;;2.70;99.90;;;;;;4954827;28;20211;-77
2021/12/07 07:59:36;;;;;;;10.57;1.60;;;2.70;99.90;;;;;;4954372;28;20774;-74
2021/12/07 08:02:03;;;;;;;9.10;1.10;;;2.80;99.90;;;;;;4954368;28;20266;-76
2021/12/07 08:04:30;;;;;;;8.67;1.80;;;2.80;99.90;;;;;;4954377;28;20212;-77
2021/12/07 08:06:56;;;;;;;9.17;1.60;;;2.90;99.90;;;;;;4962869;28;20218;-76
2021/12/07 08:09:23;;;;;;;17.03;1.47;;;3.00;99.90;;;;;;4967050;28;20200;-75
2021/12/07 08:11:50;;;;;;;4.77;1.30;;;3.10;99.90;;;;;;4954874;28;20224;-77
2021/12/07 08:14:17;;;;;;;7.70;1.17;;;3.20;99.90;;;;;;4953591;29;20216;-76
2021/12/07 08:16:46;;;;;;;9.93;1.30;;;3.30;99.90;;;;;;4954420;28;20730;-76
2021/12/07 08:19:13;;;;;;;7.33;1.50;;;3.30;99.90;;;;;;4954284;28;20215;-77
2021/12/07 08:21:39;;;;;;;8.93;1.80;;;3.30;99.90;;;;;;4954542;28;20239;-76
2021/12/07 08:24:06;;;;;;;8.63;1.67;;;3.20;99.90;;;;;;4953982;28;20207;-76
2021/12/07 08:26:33;;;;;;;10.43;1.33;;;3.20;99.90;;;;;;4954546;28;20299;-78
2021/12/07 08:29:01;;;;;;;5.33;1.20;;;3.20;99.90;;;;;;4954074;28;20218;-74
2021/12/07 08:31:29;;;;;;;9.50;2.10;;;3.20;99.90;;;;;;4953590;28;20222;-75
2021/12/07 08:33:57;;;;;;;5.83;1.20;;;3.20;99.90;;;;;;4954594;28;20305;-76
2021/12/07 08:36:24;;;;;;;7.50;1.60;;;3.10;99.90;;;;;;4954226;28;20219;-75
2021/12/07 08:38:51;;;;;;;6.60;1.17;;;3.10;99.90;;;;;;4954275;28;20215;-76
2021/12/07 08:41:18;;;;;;;5.50;1.63;;;3.20;99.90;;;;;;4954191;28;20257;-75
2021/12/07 08:43:45;;;;;;;5.90;1.00;;;3.30;99.90;;;;;;4954356;28;20218;-72
2021/12/07 08:46:14;;;;;;;5.63;1.60;;;3.30;99.90;;;;;;4960080;28;20211;-72
2021/12/07 08:48:42;;;;;;;7.13;1.30;;;3.30;99.90;;;;;;4960745;28;20208;-76
2021/12/07 08:51:12;;;;;;;2.63;1.30;;;3.30;99.90;;;;;;4973291;28;20375;-76
2021/12/07 08:53:46;;;;;;;8.33;1.20;;;3.30;99.90;;;;;;4965675;28;20196;-76
2021/12/07 09:01:41;;;;;;;4.97;1.23;;;3.30;99.90;;;;;;4954050;28;20310;-77
2021/12/07 09:04:10;;;;;;;8.23;1.47;;;3.30;99.90;;;;;;4973122;28;20207;-76
2021/12/07 09:06:38;;;;;;;8.63;1.30;;;3.30;99.90;;;;;;4959013;28;20204;-77
2021/12/07 09:09:05;;;;;;;7.13;1.10;;;3.30;99.90;;;;;;4954086;29;20267;-76
2021/12/07 09:11:32;;;;;;;6.23;1.13;;;3.40;99.90;;;;;;4954032;28;20238;-76
2021/12/07 09:13:59;;;;;;;8.97;1.27;;;3.50;99.90;;;;;;4956914;28;20219;-76
2021/12/07 09:16:26;;;;;;;5.30;0.80;;;3.50;99.90;;;;;;4960795;28;20208;-77
2021/12/07 09:18:53;;;;;;;4.70;1.40;;;3.50;99.90;;;;;;4953920;28;20219;-76
2021/12/07 09:21:20;;;;;;;2.27;0.97;;;3.60;99.90;;;;;;4953851;28;20242;-76
2021/12/07 09:23:49;;;;;;;4.87;1.17;;;3.70;99.90;;;;;;4954627;28;20663;-77
2021/12/07 09:26:19;;;;;;;5.40;1.00;;;3.70;99.90;;;;;;4960546;28;20208;-78
2021/12/07 09:28:46;;;;;;;4.20;1.27;;;3.80;99.90;;;;;;4972409;28;20684;-78
2021/12/07 09:31:13;;;;;;;7.17;1.07;;;3.90;99.90;;;;;;4966323;28;20579;-77
2021/12/07 09:33:42;;;;;;;5.07;0.80;;;4.00;99.90;;;;;;4955598;28;20212;-78
2021/12/07 09:36:11;;;;;;;9.43;0.67;;;4.00;99.90;;;;;;4957232;28;20204;-74
2021/12/07 09:38:38;;;;;;;6.87;1.30;;;4.00;99.90;;;;;;4957625;28;20212;-74
2021/12/07 09:41:10;;;;;;;5.27;0.83;;;4.00;99.90;;;;;;4956868;28;20695;-75
2021/12/07 09:43:37;;;;;;;5.93;1.27;;;4.10;99.90;;;;;;4965148;28;20259;-76
2021/12/07 09:46:04;;;;;;;4.40;1.07;;;4.10;99.90;;;;;;4971023;28;20215;-74
2021/12/07 09:48:31;;;;;;;2.07;0.90;;;4.20;99.90;;;;;;4956648;28;20207;-75
2021/12/07 09:50:58;;;;;;;12.07;1.27;;;4.30;99.90;;;;;;4956800;28;20699;-75
2021/12/07 09:53:28;;;;;;;6.17;1.57;;;4.40;99.90;;;;;;4956713;28;20667;-75
2021/12/07 09:55:56;;;;;;;12.43;1.57;;;4.50;99.90;;;;;;4957155;28;20208;-73
2021/12/07 09:58:25;;;;;;;2.57;1.07;;;4.50;99.90;;;;;;4956767;28;20208;-75
2021/12/07 10:00:52;;;;;;;3.47;0.70;;;4.50;99.90;;;;;;4956382;28;20722;-74
2021/12/07 10:03:21;;;;;;;7.10;1.30;;;4.50;99.90;;;;;;4956791;28;20208;-73
2021/12/07 10:05:48;;;;;;;5.17;1.03;;;4.60;99.90;;;;;;4956938;28;20204;-73
2021/12/07 10:08:15;;;;;;;2.77;0.70;;;4.60;99.90;;;;;;4956973;28;20215;-73
2021/12/07 10:10:46;;;;;;;1.53;0.70;;;4.70;99.90;;;;;;4956617;28;20236;-75
2021/12/07 10:13:15;;;;;;;6.20;1.27;;;4.70;99.90;;;;;;4956383;28;20212;-74
2021/12/07 10:15:45;;;;;;;8.50;0.83;;;4.70;99.90;;;;;;4956982;28;20212;-74
2021/12/07 10:18:15;;;;;;;7.30;1.00;;;4.80;99.90;;;;;;4956729;28;20212;-73
2021/12/07 10:20:45;;;;;;;5.57;0.97;;;4.80;99.90;;;;;;4956664;28;20318;-73
2021/12/07 10:23:34;;;;;;;3.73;1.17;;;4.80;99.90;;;;;;4964778;28;20207;-72
2021/12/07 10:26:05;;;;;;;2.40;0.67;;;4.90;99.90;;;;;;4968134;28;20656;-73
2021/12/07 10:28:36;;;;;;;6.33;0.87;;;4.90;99.90;;;;;;4956419;28;20208;-74
2021/12/07 10:31:16;;;;;;;9.03;1.37;;;5.00;99.90;;;;;;4956270;28;20235;-74
2021/12/07 10:33:45;;;;;;;6.10;1.10;;;5.10;99.90;;;;;;4967668;28;20203;-75
2021/12/07 10:36:16;;;;;;;7.33;1.07;;;5.10;99.90;;;;;;4955689;28;20222;-77
2021/12/07 10:38:48;;;;;;;3.63;0.97;;;5.20;99.90;;;;;;4962420;28;20206;-78
2021/12/07 10:41:21;;;;;;;4.00;1.03;;;5.10;99.90;;;;;;4954440;29;20330;-77
2021/12/07 10:43:55;;;;;;;5.93;1.00;;;5.10;99.90;;;;;;4954322;28;20216;-76
2021/12/07 10:46:46;;;;;;;6.23;1.30;;;5.10;99.90;;;;;;4959024;28;20572;-78
2021/12/07 10:49:32;;;;;;;5.10;1.57;;;5.20;99.90;;;;;;4953329;28;20208;-81
2021/12/07 10:52:13;;;;;;;2.37;1.13;;;5.30;99.90;;;;;;4971386;28;20761;-75
2021/12/07 10:54:44;;;;;;;3.87;1.20;;;5.30;99.90;;;;;;4973475;28;20289;-78
2021/12/07 10:57:14;;;;;;;2.97;0.87;;;5.20;99.90;;;;;;4959145;28;20212;-82
2021/12/07 10:59:53;;;;;;;10.70;0.90;;;5.10;99.90;;;;;;4954929;28;20211;-83
2021/12/07 11:02:22;;;;;;;2.33;0.80;;;5.20;99.90;;;;;;4955712;28;20236;-83
2021/12/07 11:04:49;;;;;;;3.00;0.90;;;5.20;99.90;;;;;;4955941;28;20210;-76
2021/12/07 11:07:20;;;;;;;5.93;1.00;;;5.20;99.90;;;;;;4955671;28;20664;-76
2021/12/07 11:10:00;;;;;;;3.57;0.73;;;5.20;99.90;;;;;;4955738;28;20208;-82
2021/12/07 11:12:34;;;;;;;3.73;0.73;;;5.20;99.90;;;;;;4955859;28;20251;-78
2021/12/07 11:15:01;;;;;;;4.00;0.70;;;5.30;99.90;;;;;;4955576;28;20587;-77
2021/12/07 11:17:32;;;;;;;5.50;0.87;;;5.30;99.90;;;;;;4955365;28;20267;-82
2021/12/07 11:20:00;;;;;;;9.23;1.20;;;5.40;99.90;;;;;;4955742;28;20211;-85
2021/12/07 11:22:31;;;;;;;3.63;1.00;;;5.40;99.90;;;;;;4956238;28;20236;-83
2021/12/07 11:24:58;;;;;;;5.60;0.90;;;5.50;99.90;;;;;;4956179;28;20208;-84
2021/12/07 11:30:14;;;;;;;3.53;1.20;;;5.70;99.90;;;;;;4955485;29;20230;-81
2021/12/07 11:32:46;;;;;;;3.60;1.53;;;5.80;99.90;;;;;;4955217;28;20681;-81
2021/12/07 11:35:18;;;;;;;11.90;1.83;;;5.90;99.90;;;;;;4955636;28;20591;-81
2021/12/07 11:37:47;;;;;;;4.43;1.30;;;6.00;99.90;;;;;;4955606;28;20210;-81
2021/12/07 11:40:18;;;;;;;6.20;1.43;;;6.20;99.90;;;;;;4955446;28;20282;-83
2021/12/07 11:42:46;;;;;;;3.83;1.10;;;6.40;99.90;;;;;;4955136;28;20208;-81
2021/12/07 11:45:16;;;;;;;11.27;1.20;;;6.50;99.90;;;;;;4954926;28;20212;-79
2021/12/07 11:47:47;;;;;;;7.03;1.73;;;6.60;99.90;;;;;;4955206;28;20211;-75
2021/12/07 11:50:22;;;;;;;6.23;1.47;;;6.60;99.90;;;;;;4955082;28;20228;-82
2021/12/07 11:52:53;;;;;;;7.03;1.47;;;6.60;99.90;;;;;;4955093;28;20211;-74
2021/12/07 11:55:25;;;;;;;5.53;1.10;;;6.60;99.90;;;;;;4954897;28;20211;-82
2021/12/07 11:57:53;;;;;;;1.47;1.00;;;6.60;99.90;;;;;;4955174;28;20533;-79
2021/12/07 12:00:23;;;;;;;5.73;1.77;;;6.50;99.90;;;;;;4954698;28;20228;-82
2021/12/07 12:02:51;;;;;;;4.77;1.17;;;6.40;99.90;;;;;;4955438;28;20215;-82
2021/12/07 12:05:19;;;;;;;3.37;1.13;;;6.40;99.90;;;;;;4954705;28;20208;-80
2021/12/07 12:07:47;;;;;;;7.60;1.23;;;6.40;99.90;;;;;;4954568;28;20214;-82
2021/12/07 12:10:17;;;;;;;2.97;1.27;;;6.30;99.90;;;;;;4954641;28;20707;-79
2021/12/07 12:13:05;;;;;;;4.63;1.30;;;6.30;99.90;;;;;;4954902;28;20208;-80
2021/12/07 12:15:54;;;;;;;2.30;1.10;;;6.40;99.90;;;;;;4954452;28;20228;-81
2021/12/07 12:18:32;;;;;;;3.17;1.40;;;6.40;99.90;;;;;;4953278;28;20212;-81
2021/12/07 12:21:12;;;;;;;6.73;1.37;;;6.50;99.90;;;;;;4954861;28;20232;-82
2021/12/07 12:23:48;;;;;;;3.40;1.60;;;6.50;99.90;;;;;;4955595;28;20224;-81
2021/12/07 12:26:21;;;;;;;5.77;1.20;;;6.40;99.90;;;;;;4954402;28;20214;-82
2021/12/07 12:28:49;;;;;;;5.57;1.60;;;6.30;99.90;;;;;;4954565;28;20208;-80
2021/12/07 12:31:18;;;;;;;3.33;1.07;;;6.30;99.90;;;;;;4953718;28;20228;-80
2021/12/07 12:33:57;;;;;;;3.63;1.40;;;6.20;99.90;;;;;;4953758;28;20208;-82
2021/12/07 12:36:25;;;;;;;5.93;1.60;;;6.20;99.90;;;;;;4953748;28;20216;-80
2021/12/07 12:38:58;;;;;;;2.57;1.23;;;6.20;99.90;;;;;;4953747;28;20755;-81
2021/12/07 12:41:25;;;;;;;3.97;1.20;;;6.20;99.90;;;;;;4953342;28;20243;-79
2021/12/07 12:43:55;;;;;;;6.10;1.30;;;6.20;99.90;;;;;;4954240;28;20579;-80
2021/12/07 12:46:25;;;;;;;4.87;1.40;;;6.10;99.90;;;;;;4954012;28;20294;-79
2021/12/07 12:48:56;;;;;;;3.97;1.40;;;6.10;99.90;;;;;;4954112;28;20655;-82
2021/12/07 12:51:24;;;;;;;3.90;1.27;;;6.00;99.90;;;;;;4962140;28;20307;-80
2021/12/07 12:53:53;;;;;;;2.83;1.30;;;6.00;99.90;;;;;;4973488;28;20219;-81
2021/12/07 12:56:23;;;;;;;4.83;1.33;;;6.20;99.90;;;;;;4965943;28;20563;-76
2021/12/07 12:58:51;;;;;;;7.57;1.43;;;6.30;99.90;;;;;;4953985;29;20284;-79
2021/12/07 13:01:26;;;;;;;2.90;1.23;;;6.40;99.90;;;;;;4954132;29;20239;-78
2021/12/07 13:04:06;;;;;;;2.27;1.10;;;6.40;99.90;;;;;;4953416;29;20207;-80
2021/12/07 13:06:48;;;;;;;5.50;1.20;;;6.40;99.90;;;;;;4954634;28;20319;-78
2021/12/07 13:09:28;;;;;;;2.77;1.30;;;6.30;99.90;;;;;;4957051;29;20208;-80
2021/12/07 13:11:57;;;;;;;3.43;1.20;;;6.40;99.90;;;;;;4957790;29;20242;-79
2021/12/07 13:14:36;;;;;;;3.00;1.47;;;6.30;99.90;;;;;;4957905;29;20594;-79
2021/12/07 13:17:07;;;;;;;2.90;1.10;;;6.50;99.90;;;;;;4957526;29;20207;-83
2021/12/07 13:20:13;;;;;;;4.13;0.93;;;6.50;99.90;;;;;;4958118;29;20212;-81
2021/12/07 13:22:44;;;;;;;4.57;1.17;;;6.50;99.90;;;;;;4957641;29;20259;-81
2021/12/07 13:25:14;;;;;;;2.37;1.10;;;6.40;99.90;;;;;;4957974;29;20208;-80
2021/12/07 13:28:10;;;;;;;3.17;1.03;;;6.30;99.90;;;;;;4958234;29;20211;-81
2021/12/07 13:30:52;;;;;;;7.43;1.47;;;6.20;99.90;;;;;;4957564;29;20251;-80
2021/12/07 13:33:22;;;;;;;2.30;1.30;;;6.10;99.90;;;;;;4957572;29;20216;-79
2021/12/07 13:35:52;;;;;;;7.57;1.67;;;6.20;99.90;;;;;;4957902;29;20591;-80
2021/12/07 13:38:21;;;;;;;2.47;1.07;;;6.20;99.90;;;;;;4957570;29;20214;-80
2021/12/07 13:40:50;;;;;;;7.20;1.40;;;6.30;99.90;;;;;;4957457;29;20235;-80
2021/12/07 13:43:31;;;;;;;3.57;1.40;;;6.10;99.90;;;;;;4957643;29;20239;-78
2021/12/07 13:46:12;;;;;;;4.43;1.20;;;6.00;99.90;;;;;;4957459;29;20258;-80
2021/12/07 13:48:39;;;;;;;2.60;1.03;;;6.00;99.90;;;;;;4957289;29;20208;-79
2021/12/07 13:51:08;;;;;;;4.83;1.30;;;6.10;99.90;;;;;;4957023;29;20323;-78
2021/12/07 13:53:36;;;;;;;5.97;1.27;;;6.10;99.90;;;;;;4957192;29;20663;-80
2021/12/07 13:56:04;;;;;;;3.57;1.13;;;6.10;99.90;;;;;;4957131;29;20211;-80
2021/12/07 13:58:45;;;;;;;3.07;1.47;;;6.10;99.90;;;;;;4957117;29;20208;-79
2021/12/07 14:01:11;;;;;;;2.00;1.30;;;6.00;99.90;;;;;;4956733;29;20227;-80
2021/12/07 14:03:43;;;;;;;4.77;1.47;;;5.90;99.90;;;;;;4957115;29;20299;-80
2021/12/07 14:06:11;;;;;;;2.40;1.30;;;5.90;99.90;;;;;;4957117;29;20209;-79
2021/12/07 14:08:38;;;;;;;8.00;1.50;;;5.90;99.90;;;;;;4956860;29;20215;-80
2021/12/07 14:11:05;;;;;;;10.20;1.57;;;5.90;99.90;;;;;;4956542;29;20238;-80
2021/12/07 14:13:32;;;;;;;2.70;1.50;;;5.80;99.90;;;;;;4956513;29;20224;-80
2021/12/07 14:15:59;;;;;;;2.87;1.50;;;5.90;99.90;;;;;;4963071;28;20211;-80
2021/12/07 14:18:27;;;;;;;4.13;1.30;;;6.00;99.90;;;;;;4975534;28;20677;-80
2021/12/07 14:20:56;;;;;;;3.13;1.27;;;6.00;99.90;;;;;;4976048;28;20231;-80
2021/12/07 14:23:27;;;;;;;4.63;1.20;;;6.00;99.90;;;;;;4976068;28;20235;-80
2021/12/07 14:25:57;;;;;;;4.67;1.30;;;6.00;99.90;;;;;;4976178;28;20216;-77
2021/12/07 14:28:36;;;;;;;2.43;1.10;;;6.00;99.90;;;;;;4976127;28;20207;-81
2021/12/07 14:31:09;;;;;;;5.60;1.50;;;6.00;99.90;;;;;;4975612;28;20230;-79